Time;durP1;ratioP1;P1;durP2;ratioP2;P2;SDS_P1;SDS_P2;PMS_P1;PMS_P2;Temp;Humidity;BMP_temperature;BMP_pressure;BME280_temperature;BME280_humidity;BME280_pressure;Samples;Min_cycle;Max_cycle;Signal;HPM_P1;HPM_P2
2024/01/05 00:01:30;;;;;;;21.80;11.82;;;;;;;-144.73;100.00;54703.28;5030870;28;20108;-75
2024/01/05 00:03:58;;;;;;;23.67;12.32;;;;;;;-144.73;100.00;54674.53;5030305;28;20111;-75
2024/01/05 00:06:23;;;;;;;23.58;12.70;;;;;;;-144.73;100.00;54703.28;5031030;28;20084;-76
2024/01/05 00:08:49;;;;;;;21.77;12.35;;;;;;;-144.73;100.00;54678.63;5031972;28;20034;-75
2024/01/05 00:11:19;;;;;;;25.25;12.73;;;;;;;-144.73;100.00;54719.69;5029635;28;20629;-76
2024/01/05 00:13:45;;;;;;;25.63;12.07;;;;;;;-144.73;100.00;54705.31;5012476;28;20026;-76
2024/01/05 00:16:17;;;;;;;26.58;11.40;;;;;;;-144.73;100.00;54713.53;5013158;28;20108;-75
2024/01/05 00:18:43;;;;;;;24.95;12.05;;;;;;;-144.73;100.00;54703.28;5015627;28;20038;-75
2024/01/05 00:21:08;;;;;;;20.13;11.43;;;;;;;-144.73;100.00;54740.22;5011607;28;20018;-76
2024/01/05 00:23:34;;;;;;;23.63;12.00;;;;;;;-144.73;100.00;54701.22;5027108;28;20389;-76
2024/01/05 00:26:03;;;;;;;22.75;10.32;;;;;;;-144.73;100.00;54740.22;5030917;28;20499;-75
2024/01/05 00:28:28;;;;;;;19.05;11.45;;;;;;;-144.73;100.00;54682.75;5025959;28;20116;-76
2024/01/05 00:30:54;;;;;;;22.58;11.48;;;;;;;-144.73;100.00;54732.00;5031073;28;20109;-75
2024/01/05 00:33:20;;;;;;;24.98;11.60;;;;;;;-144.73;100.00;54678.63;5031169;28;20041;-75
2024/01/05 00:35:45;;;;;;;19.92;11.27;;;;;;;-144.73;100.00;54711.47;5030738;28;20032;-75
2024/01/05 00:38:11;;;;;;;23.15;11.05;;;;;;;-144.73;100.00;54736.13;5031288;28;20037;-75
2024/01/05 00:40:36;;;;;;;19.90;11.05;;;;;;;-144.73;100.00;54721.75;5025036;28;20021;-76
2024/01/05 00:43:01;;;;;;;27.15;11.75;;;;;;;-144.73;100.00;54705.31;5026471;28;20065;-75
2024/01/05 00:45:27;;;;;;;20.00;11.13;;;;;;;-144.73;100.00;54688.91;5030745;28;20014;-75
2024/01/05 00:47:52;;;;;;;16.73;10.68;;;;;;;-144.73;100.00;54670.44;5030283;28;20439;-75
2024/01/05 00:50:17;;;;;;;24.98;11.50;;;;;;;-144.73;100.00;54709.44;5030325;28;20033;-75
2024/01/05 00:52:43;;;;;;;21.65;11.55;;;;;;;-144.73;100.00;54723.81;5027736;28;20022;-75
2024/01/05 00:55:08;;;;;;;19.10;9.80;;;;;;;-144.73;100.00;54715.59;5027882;28;20025;-75
2024/01/05 00:57:34;;;;;;;18.42;10.20;;;;;;;-144.73;100.00;54723.81;5027222;28;20021;-76
2024/01/05 00:59:59;;;;;;;23.98;11.00;;;;;;;-144.73;100.00;54727.91;5030765;28;20030;-76
2024/01/05 01:02:25;;;;;;;19.85;10.70;;;;;;;-144.73;100.00;54682.75;5022232;28;20519;-75
2024/01/05 01:04:50;;;;;;;20.95;10.15;;;;;;;-144.73;100.00;54711.47;5010196;28;20401;-76
2024/01/05 01:07:15;;;;;;;20.45;11.27;;;;;;;-144.73;100.00;54699.16;5011445;28;20056;-75
2024/01/05 01:09:40;;;;;;;19.65;10.40;;;;;;;-144.73;100.00;54746.38;5010155;28;20539;-75
2024/01/05 01:12:06;;;;;;;19.08;10.77;;;;;;;-144.73;100.00;54713.53;5019016;28;20038;-75
2024/01/05 01:14:31;;;;;;;23.83;10.90;;;;;;;-144.73;100.00;54703.28;5024932;28;20037;-75
2024/01/05 01:16:57;;;;;;;19.88;10.48;;;;;;;-144.73;100.00;54711.47;5030427;28;20033;-75
2024/01/05 01:19:22;;;;;;;18.65;10.68;;;;;;;-144.73;100.00;54744.31;5029247;28;20064;-75
2024/01/05 01:21:47;;;;;;;19.50;10.70;;;;;;;-144.73;100.00;54693.00;5029450;28;20530;-75
2024/01/05 01:24:13;;;;;;;19.98;10.35;;;;;;;-144.73;100.00;54715.59;5029255;28;20052;-75
2024/01/05 01:26:38;;;;;;;16.05;9.82;;;;;;;-144.73;100.00;54738.16;5033236;28;20045;-75
2024/01/05 01:29:06;;;;;;;22.33;11.60;;;;;;;-144.73;100.00;54727.91;5031130;28;20037;-75
2024/01/05 01:31:32;;;;;;;22.45;11.90;;;;;;;-144.73;100.00;54748.44;5036566;28;20029;-75
2024/01/05 01:33:57;;;;;;;18.05;9.15;;;;;;;-144.73;100.00;54715.59;5031026;28;20033;-75
2024/01/05 01:36:23;;;;;;;17.27;10.88;;;;;;;-144.73;100.00;54695.06;5036189;28;20025;-75
2024/01/05 01:38:48;;;;;;;27.05;10.88;;;;;;;-144.73;100.00;54707.38;5035763;28;20542;-74
2024/01/05 01:41:14;;;;;;;23.02;11.50;;;;;;;-144.73;100.00;54723.81;5036457;28;20116;-74
2024/01/05 01:43:46;;;;;;;14.82;9.82;;;;;;;-144.73;100.00;54711.47;5035584;28;20065;-76
2024/01/05 01:46:11;;;;;;;23.92;11.52;;;;;;;-144.73;100.00;54719.69;5035354;28;20120;-75
2024/01/05 01:48:37;;;;;;;16.30;10.73;;;;;;;-144.73;100.00;54686.84;5029963;28;20120;-75
2024/01/05 01:51:03;;;;;;;19.85;11.20;;;;;;;-144.73;100.00;54707.38;5037316;28;20029;-75
2024/01/05 01:53:28;;;;;;;20.38;10.32;;;;;;;-144.73;100.00;54715.59;5019749;28;20048;-75
2024/01/05 01:55:54;;;;;;;21.10;11.68;;;;;;;-144.73;100.00;54707.38;5017274;28;20045;-75
2024/01/05 01:58:21;;;;;;;17.48;10.63;;;;;;;-144.73;100.00;54732.00;5020206;28;20065;-75
2024/01/05 02:00:47;;;;;;;17.42;10.82;;;;;;;-144.73;100.00;54727.91;5029427;28;20025;-75
2024/01/05 02:03:15;;;;;;;17.83;11.10;;;;;;;-144.73;100.00;54723.81;5029313;28;20048;-75
2024/01/05 02:05:41;;;;;;;21.42;11.23;;;;;;;-144.73;100.00;54690.97;5034444;28;20018;-75
2024/01/05 02:08:07;;;;;;;20.80;11.50;;;;;;;-144.73;100.00;54703.28;5027310;28;20032;-75
2024/01/05 02:10:32;;;;;;;24.48;11.40;;;;;;;-144.73;100.00;54697.13;5033358;28;20041;-74
2024/01/05 02:12:59;;;;;;;21.63;10.77;;;;;;;-144.73;100.00;54670.44;5032791;28;20503;-75
2024/01/05 02:15:24;;;;;;;21.50;11.35;;;;;;;-144.73;100.00;54703.28;5031710;28;20065;-75
2024/01/05 02:17:50;;;;;;;23.45;10.77;;;;;;;-144.73;100.00;54711.47;5036624;28;20044;-75
2024/01/05 02:20:15;;;;;;;22.73;12.18;;;;;;;-144.73;100.00;54699.16;5036133;28;20116;-75
2024/01/05 02:22:47;;;;;;;25.35;12.13;;;;;;;-144.73;100.00;54703.28;5050378;28;20029;-75
2024/01/05 02:25:12;;;;;;;26.35;12.68;;;;;;;-144.73;100.00;54736.13;5028385;28;20025;-75
2024/01/05 02:27:38;;;;;;;32.08;12.75;;;;;;;-144.73;100.00;54723.81;5035378;28;20047;-75
2024/01/05 02:30:04;;;;;;;22.05;11.32;;;;;;;-144.73;100.00;54752.53;5035924;28;20053;-75
2024/01/05 02:32:30;;;;;;;25.27;11.88;;;;;;;-144.73;100.00;54699.16;5044777;28;20061;-75
2024/01/05 02:34:56;;;;;;;23.13;13.05;;;;;;;-144.73;100.00;54719.69;5020754;28;20477;-75
2024/01/05 02:37:22;;;;;;;25.00;12.55;;;;;;;-144.73;100.00;54707.38;5033479;28;20026;-76
2024/01/05 02:39:47;;;;;;;27.83;12.50;;;;;;;-144.73;100.00;54736.13;5026084;28;20036;-75
2024/01/05 02:42:12;;;;;;;23.23;12.80;;;;;;;-144.73;100.00;54719.69;5026732;28;20065;-75
2024/01/05 02:44:38;;;;;;;27.63;14.82;;;;;;;-144.73;100.00;54719.69;5012533;28;20114;-75
2024/01/05 02:47:03;;;;;;;23.92;13.13;;;;;;;-144.73;100.00;54715.59;5011832;28;20038;-76
2024/01/05 02:49:28;;;;;;;23.20;12.93;;;;;;;-144.73;100.00;54695.06;5013078;28;20500;-75
2024/01/05 02:51:54;;;;;;;24.00;13.68;;;;;;;-144.73;100.00;54719.69;5019415;28;20026;-75
2024/01/05 02:54:19;;;;;;;25.73;12.75;;;;;;;-144.73;100.00;54699.16;5026118;28;20044;-75
2024/01/05 02:56:44;;;;;;;23.98;12.90;;;;;;;-144.73;100.00;54719.69;5023679;28;20033;-75
2024/01/05 02:59:10;;;;;;;29.42;12.60;;;;;;;-144.73;100.00;54703.28;5024077;28;20042;-75
2024/01/05 03:01:35;;;;;;;22.90;13.02;;;;;;;-144.73;100.00;54748.44;5026004;28;20029;-75
2024/01/05 03:04:01;;;;;;;34.35;14.38;;;;;;;-144.73;100.00;54680.69;5032115;28;20030;-75
2024/01/05 03:06:26;;;;;;;36.13;13.25;;;;;;;-144.73;100.00;54707.38;5032144;28;20025;-76
2024/01/05 03:08:52;;;;;;;27.65;13.18;;;;;;;-144.73;100.00;54711.47;5031486;28;20083;-76
2024/01/05 03:11:17;;;;;;;29.60;14.63;;;;;;;-144.73;100.00;54701.22;5030238;28;20546;-75
2024/01/05 03:13:43;;;;;;;30.73;14.45;;;;;;;-144.73;100.00;54719.69;5026309;28;20527;-76
2024/01/05 03:16:08;;;;;;;28.73;14.55;;;;;;;-144.73;100.00;54707.38;5031815;28;20029;-75
2024/01/05 03:18:34;;;;;;;33.90;13.85;;;;;;;-144.73;100.00;54711.47;5030309;28;20064;-76
2024/01/05 03:20:59;;;;;;;25.63;13.95;;;;;;;-144.73;100.00;54682.75;5025678;28;20120;-75
2024/01/05 03:23:24;;;;;;;27.50;14.10;;;;;;;-144.73;100.00;54699.16;5030596;28;20104;-76
2024/01/05 03:25:53;;;;;;;33.20;14.27;;;;;;;-144.73;100.00;54711.47;5031956;28;20037;-75
2024/01/05 03:28:18;;;;;;;25.63;14.02;;;;;;;-144.73;100.00;54732.00;5025073;28;20404;-76
2024/01/05 03:30:44;;;;;;;28.67;14.10;;;;;;;-144.73;100.00;54703.28;5028860;28;20048;-76
2024/01/05 03:33:09;;;;;;;33.65;15.00;;;;;;;-144.73;100.00;54684.78;5016018;28;20456;-75
2024/01/05 03:35:38;;;;;;;24.95;14.23;;;;;;;-144.73;100.00;54736.13;5014613;28;20034;-75
2024/01/05 03:38:03;;;;;;;26.70;14.20;;;;;;;-144.73;100.00;54740.22;5012023;28;20556;-76
2024/01/05 03:40:29;;;;;;;36.10;14.93;;;;;;;-144.73;100.00;54744.31;5012576;28;20021;-76
2024/01/05 03:42:56;;;;;;;33.42;14.38;;;;;;;-144.73;100.00;54654.00;5029226;28;20033;-75
2024/01/05 03:45:21;;;;;;;27.58;13.93;;;;;;;-144.73;100.00;54707.38;5047960;28;20091;-75
2024/01/05 03:47:46;;;;;;;26.00;12.27;;;;;;;-144.73;100.00;54715.59;5029198;28;20044;-76
2024/01/05 03:50:12;;;;;;;34.50;13.55;;;;;;;-144.73;100.00;54744.31;5022350;28;20018;-76
2024/01/05 03:52:37;;;;;;;27.23;13.38;;;;;;;-144.73;100.00;54711.47;5031019;28;20452;-76
2024/01/05 03:55:03;;;;;;;28.23;13.73;;;;;;;-144.73;100.00;54709.44;5031649;28;20026;-76
2024/01/05 03:57:28;;;;;;;26.55;13.02;;;;;;;-144.73;100.00;54732.00;5026907;28;20068;-75
2024/01/05 03:59:54;;;;;;;29.20;13.18;;;;;;;-144.73;100.00;54711.47;5016624;28;20774;-75
2024/01/05 04:02:19;;;;;;;29.20;12.75;;;;;;;-144.73;100.00;54711.47;5031006;28;20040;-76
2024/01/05 04:04:45;;;;;;;27.55;12.98;;;;;;;-144.73;100.00;54713.53;5025812;28;20029;-75
2024/01/05 04:07:10;;;;;;;30.23;13.80;;;;;;;-144.73;100.00;54676.59;5031835;28;20030;-76
2024/01/05 04:09:36;;;;;;;26.08;12.95;;;;;;;-144.73;100.00;54707.38;5030333;28;20044;-76
2024/01/05 04:12:02;;;;;;;27.98;12.35;;;;;;;-144.73;100.00;54674.53;5030719;28;20017;-76
2024/01/05 04:14:27;;;;;;;31.38;11.77;;;;;;;-144.73;100.00;54732.00;5031360;28;20108;-75
2024/01/05 04:16:52;;;;;;;27.77;13.07;;;;;;;-144.73;100.00;54715.59;5031047;28;20024;-76
2024/01/05 04:19:18;;;;;;;28.33;12.65;;;;;;;-144.73;100.00;54740.22;5046900;28;20103;-75
2024/01/05 04:21:43;;;;;;;32.00;13.23;;;;;;;-144.73;100.00;54727.91;5030690;28;20027;-75
2024/01/05 04:24:08;;;;;;;36.40;15.65;;;;;;;-144.73;100.00;54678.63;5011857;28;20030;-76
2024/01/05 04:26:34;;;;;;;22.98;11.98;;;;;;;-144.73;100.00;54690.97;5029568;28;20112;-76
2024/01/05 04:29:00;;;;;;;33.30;15.02;;;;;;;-144.73;100.00;54703.28;5025713;28;20044;-75
2024/01/05 04:31:25;;;;;;;25.98;13.15;;;;;;;-144.73;100.00;54715.59;5028186;28;20022;-76
2024/01/05 04:33:52;;;;;;;28.00;14.05;;;;;;;-144.73;100.00;54723.81;5027370;28;20053;-75
2024/01/05 04:36:20;;;;;;;29.63;13.10;;;;;;;-144.73;100.00;54732.00;5027361;28;20117;-75
2024/01/05 04:38:45;;;;;;;34.38;14.93;;;;;;;-144.73;100.00;54662.22;5031307;28;20030;-75
2024/01/05 04:41:14;;;;;;;29.33;14.73;;;;;;;-144.73;100.00;54727.91;5019452;28;20034;-76
2024/01/05 04:43:39;;;;;;;36.03;15.65;;;;;;;-144.73;100.00;54727.91;5028743;28;20117;-75
2024/01/05 04:46:05;;;;;;;35.55;15.60;;;;;;;-144.73;100.00;54713.53;5030573;28;20116;-75
2024/01/05 04:48:31;;;;;;;36.47;15.05;;;;;;;-144.73;100.00;54723.81;5029526;28;20064;-75
2024/01/05 04:50:56;;;;;;;37.75;15.95;;;;;;;-144.73;100.00;54695.06;5030798;28;20057;-76
2024/01/05 04:53:21;;;;;;;33.53;15.55;;;;;;;-144.73;100.00;54670.44;5029752;28;20091;-74
2024/01/05 04:55:47;;;;;;;34.22;15.70;;;;;;;-144.73;100.00;54732.00;5031632;28;20021;-75
2024/01/05 04:58:12;;;;;;;37.17;15.65;;;;;;;-144.73;100.00;54695.06;5023211;28;20531;-75
2024/01/05 05:00:37;;;;;;;39.05;14.98;;;;;;;-144.73;100.00;54703.28;5029438;28;20029;-75
2024/01/05 05:03:03;;;;;;;36.03;16.33;;;;;;;-144.73;100.00;54727.91;5029570;28;20049;-75
2024/01/05 05:05:28;;;;;;;27.80;12.57;;;;;;;-144.73;100.00;54719.69;5014383;28;20033;-75
2024/01/05 05:07:54;;;;;;;28.38;14.02;;;;;;;-144.73;100.00;54709.44;5021307;28;20050;-75
2024/01/05 05:10:22;;;;;;;32.05;14.55;;;;;;;-144.73;100.00;54707.38;5013684;28;20033;-76
2024/01/05 05:12:47;;;;;;;28.45;14.30;;;;;;;-144.73;100.00;54715.59;5019194;28;20021;-75
2024/01/05 05:15:12;;;;;;;27.75;14.25;;;;;;;-144.73;100.00;54727.91;5043371;28;20025;-75
2024/01/05 05:17:38;;;;;;;32.30;12.45;;;;;;;-144.73;100.00;54695.06;5029428;28;20025;-75
2024/01/05 05:20:03;;;;;;;27.15;14.23;;;;;;;-144.73;100.00;54727.91;5027856;28;20037;-75
2024/01/05 05:22:29;;;;;;;31.73;12.68;;;;;;;-144.73;100.00;54719.69;5029608;28;20022;-76
2024/01/05 05:24:55;;;;;;;32.72;14.55;;;;;;;-144.73;100.00;54719.69;5029700;28;20034;-76
2024/01/05 05:27:20;;;;;;;23.75;13.15;;;;;;;-144.73;100.00;54711.47;5018409;28;20024;-75
2024/01/05 05:29:47;;;;;;;29.92;14.77;;;;;;;-144.73;100.00;54732.00;5025783;28;20037;-75
2024/01/05 05:32:13;;;;;;;38.92;14.65;;;;;;;-144.73;100.00;54703.28;5027334;28;20068;-75
2024/01/05 05:34:40;;;;;;;30.08;14.07;;;;;;;-144.73;100.00;54725.84;5023692;28;20096;-76
2024/01/05 05:37:06;;;;;;;28.20;12.50;;;;;;;-144.73;100.00;54715.59;5047137;28;20037;-75
2024/01/05 05:39:31;;;;;;;28.42;13.00;;;;;;;-144.73;100.00;54709.44;5015881;28;20045;-76
2024/01/05 05:41:57;;;;;;;27.73;13.43;;;;;;;-144.73;100.00;54715.59;5022837;28;20021;-76
2024/01/05 05:44:25;;;;;;;34.47;14.55;;;;;;;-144.73;100.00;54732.00;5029382;28;20099;-76
2024/01/05 05:46:50;;;;;;;32.78;15.02;;;;;;;-144.73;100.00;54727.91;5033219;28;20029;-76
2024/01/05 05:49:16;;;;;;;27.88;13.73;;;;;;;-144.73;100.00;54703.28;5022492;28;20092;-75
2024/01/05 05:51:41;;;;;;;28.52;13.88;;;;;;;-144.73;100.00;54688.91;5044493;28;20506;-76
2024/01/05 05:54:06;;;;;;;36.88;14.35;;;;;;;-144.73;100.00;54732.00;5023062;28;20390;-76
2024/01/05 05:56:32;;;;;;;28.83;13.48;;;;;;;-144.73;100.00;54715.59;5024076;28;20033;-76
2024/01/05 05:58:57;;;;;;;27.55;13.07;;;;;;;-144.73;100.00;54662.22;5004070;28;20044;-76
2024/01/05 06:01:24;;;;;;;31.25;13.45;;;;;;;-144.73;100.00;54736.13;5007757;28;20092;-75
2024/01/05 06:03:50;;;;;;;31.08;14.52;;;;;;;-144.73;100.00;54686.84;5009883;28;20041;-75
2024/01/05 06:06:21;;;;;;;32.28;12.82;;;;;;;-144.73;100.00;54709.44;5010812;28;20392;-75
2024/01/05 06:08:47;;;;;;;31.75;14.25;;;;;;;-144.73;100.00;54732.00;5014927;28;20124;-75
2024/01/05 06:11:16;;;;;;;31.80;13.95;;;;;;;-144.73;100.00;54707.38;5016038;28;20029;-75
2024/01/05 06:13:41;;;;;;;35.83;14.30;;;;;;;-144.73;100.00;54707.38;5028940;28;20044;-75
2024/01/05 06:16:07;;;;;;;33.63;14.88;;;;;;;-144.73;100.00;54748.44;5021228;28;20026;-75
2024/01/05 06:18:32;;;;;;;30.77;13.70;;;;;;;-144.73;100.00;54682.75;5025635;28;20030;-75
2024/01/05 06:21:01;;;;;;;31.67;14.23;;;;;;;-144.73;100.00;54734.06;5033727;28;20029;-75
2024/01/05 06:23:26;;;;;;;30.17;13.93;;;;;;;-144.73;100.00;54699.16;5032612;28;20045;-74
2024/01/05 06:25:51;;;;;;;25.45;13.23;;;;;;;-144.73;100.00;54699.16;5012621;28;20049;-76
2024/01/05 06:28:17;;;;;;;33.63;13.55;;;;;;;-144.73;100.00;54727.91;5015035;28;20505;-76
2024/01/05 06:30:43;;;;;;;40.15;15.73;;;;;;;-144.73;100.00;54736.13;5018399;28;20030;-75
2024/01/05 06:33:08;;;;;;;32.22;14.88;;;;;;;-144.73;100.00;54707.38;5026956;28;20038;-75
2024/01/05 06:35:34;;;;;;;27.65;14.45;;;;;;;-144.73;100.00;54715.59;5030259;28;20067;-76
2024/01/05 06:37:59;;;;;;;34.00;13.85;;;;;;;-144.73;100.00;54740.22;5029833;28;20036;-74
2024/01/05 06:40:25;;;;;;;22.15;12.10;;;;;;;-144.73;100.00;54721.75;5030189;28;20042;-75
2024/01/05 06:42:50;;;;;;;31.65;13.00;;;;;;;-144.73;100.00;54752.53;5022101;28;20053;-77
2024/01/05 06:45:16;;;;;;;30.90;12.20;;;;;;;-144.73;100.00;54748.44;5013580;28;20026;-76
2024/01/05 06:47:41;;;;;;;32.33;14.07;;;;;;;-144.73;100.00;54688.91;5013230;28;20029;-76
2024/01/05 06:50:07;;;;;;;29.90;13.17;;;;;;;-144.73;100.00;54715.59;5013719;28;20052;-76
2024/01/05 06:52:33;;;;;;;33.00;15.85;;;;;;;-144.73;100.00;54723.81;5019248;28;20048;-75
2024/01/05 06:54:59;;;;;;;29.38;13.32;;;;;;;-144.73;100.00;54736.13;5017219;28;20030;-75
2024/01/05 06:57:25;;;;;;;29.27;12.70;;;;;;;-144.73;100.00;54748.44;5023469;28;20060;-75
2024/01/05 06:59:51;;;;;;;31.00;12.55;;;;;;;-144.73;100.00;54719.69;5017471;28;20072;-75
2024/01/05 07:02:17;;;;;;;30.85;14.05;;;;;;;-144.73;100.00;54768.97;5026656;28;20041;-76
2024/01/05 07:04:42;;;;;;;25.55;12.70;;;;;;;-144.73;100.00;54705.31;5024936;28;20042;-75
2024/01/05 07:07:08;;;;;;;26.60;13.38;;;;;;;-144.73;100.00;54695.06;5023476;28;20612;-75
2024/01/05 07:09:33;;;;;;;20.70;12.10;;;;;;;-144.73;100.00;54732.00;5029891;28;20497;-75
2024/01/05 07:11:59;;;;;;;28.35;13.25;;;;;;;-144.73;100.00;54732.00;5030586;28;20029;-75
2024/01/05 07:14:27;;;;;;;22.63;12.20;;;;;;;-144.73;100.00;54740.22;5025986;28;20038;-75
2024/01/05 07:16:57;;;;;;;25.52;13.55;;;;;;;-144.73;100.00;54690.97;5032380;28;20076;-75
2024/01/05 07:19:22;;;;;;;33.60;13.77;;;;;;;-144.73;100.00;54740.22;5032088;28;20029;-75
2024/01/05 07:21:48;;;;;;;28.00;12.75;;;;;;;-144.73;100.00;54703.28;5032006;28;20529;-75
2024/01/05 07:24:17;;;;;;;30.63;13.43;;;;;;;-144.73;100.00;54723.81;5031210;28;20047;-75
2024/01/05 07:26:43;;;;;;;29.67;13.20;;;;;;;-144.73;100.00;54742.28;5048649;28;20117;-74
2024/01/05 07:29:08;;;;;;;24.77;13.68;;;;;;;-144.73;100.00;54723.81;5031882;28;20069;-76
2024/01/05 07:31:34;;;;;;;28.60;13.30;;;;;;;-144.73;100.00;54715.59;5022380;28;20058;-76
2024/01/05 07:34:00;;;;;;;28.00;14.13;;;;;;;-144.73;100.00;54705.31;5017295;28;20045;-76
2024/01/05 07:36:25;;;;;;;31.52;14.32;;;;;;;-144.73;100.00;54678.63;5026046;28;20424;-75
2024/01/05 07:38:58;;;;;;;23.40;11.85;;;;;;;-144.73;100.00;54707.38;5031920;28;20121;-76
2024/01/05 07:41:25;;;;;;;24.85;11.95;;;;;;;-144.73;100.00;54727.91;5030677;28;20117;-74
2024/01/05 07:43:50;;;;;;;25.13;12.50;;;;;;;-144.73;100.00;54707.38;5028602;28;20038;-76
2024/01/05 07:46:15;;;;;;;32.53;12.95;;;;;;;-144.73;100.00;54703.28;5022167;28;20033;-76
2024/01/05 07:48:41;;;;;;;28.17;13.93;;;;;;;-144.73;100.00;54715.59;5030814;28;20045;-75
2024/01/05 07:51:07;;;;;;;28.15;13.05;;;;;;;-144.73;100.00;54727.91;5032059;28;20033;-75
2024/01/05 07:53:35;;;;;;;27.33;12.03;;;;;;;-144.73;100.00;54744.31;5030736;28;20045;-75
2024/01/05 07:56:04;;;;;;;34.00;12.93;;;;;;;-144.73;100.00;54723.81;5047713;28;20035;-75
2024/01/05 07:58:30;;;;;;;25.50;12.68;;;;;;;-144.73;100.00;54723.81;5029386;28;20040;-75
2024/01/05 08:00:55;;;;;;;25.33;13.30;;;;;;;-144.73;100.00;54744.31;5031930;28;20025;-75
2024/01/05 08:03:21;;;;;;;34.90;13.57;;;;;;;-144.73;100.00;54752.53;5030752;28;20180;-75
2024/01/05 08:05:47;;;;;;;21.77;12.20;;;;;;;-144.73;100.00;54719.69;5024910;28;20115;-75
2024/01/05 08:08:13;;;;;;;23.10;12.23;;;;;;;-144.73;100.00;54674.53;5027037;28;20037;-75
2024/01/05 08:10:39;;;;;;;27.90;12.75;;;;;;;-144.73;100.00;54711.47;5029579;28;20044;-75
2024/01/05 08:13:04;;;;;;;22.80;14.05;;;;;;;-144.73;100.00;54744.31;5018442;28;20042;-76
2024/01/05 08:15:30;;;;;;;24.45;12.38;;;;;;;-144.73;100.00;54713.53;5018699;28;20030;-74
2024/01/05 08:17:56;;;;;;;21.73;11.13;;;;;;;-144.73;100.00;54736.13;5005237;28;20042;-75
2024/01/05 08:20:21;;;;;;;23.20;11.27;;;;;;;-144.73;100.00;54707.38;5011948;28;20036;-76
2024/01/05 08:22:49;;;;;;;23.70;12.27;;;;;;;-144.73;100.00;54674.53;5021236;28;20396;-76
2024/01/05 08:25:15;;;;;;;25.55;11.80;;;;;;;-144.73;100.00;54707.38;5017522;28;20029;-75
2024/01/05 08:27:42;;;;;;;26.02;11.63;;;;;;;-144.73;100.00;54721.75;5024316;28;20033;-70
2024/01/05 08:30:11;;;;;;;26.63;11.50;;;;;;;-144.73;100.00;54723.81;5031404;28;20087;-68
2024/01/05 08:32:38;;;;;;;29.92;9.82;;;;;;;-144.73;100.00;54711.47;5016837;28;20033;-69
2024/01/05 08:35:05;;;;;;;25.48;12.27;;;;;;;-144.73;100.00;54742.28;5023839;28;20021;-69
2024/01/05 08:37:31;;;;;;;18.65;11.23;;;;;;;-144.73;100.00;54732.00;5028742;28;20037;-71
2024/01/05 08:39:56;;;;;;;22.80;11.35;;;;;;;-144.73;100.00;54703.28;5012381;28;20029;-68
2024/01/05 08:42:22;;;;;;;18.35;9.98;;;;;;;-144.73;100.00;54719.69;5028360;28;20030;-67
2024/01/05 08:44:47;;;;;;;17.92;10.60;;;;;;;-144.73;100.00;54719.69;5011059;28;20052;-67
2024/01/05 08:47:13;;;;;;;24.20;10.93;;;;;;;-144.73;100.00;54740.22;5011772;28;20025;-68
2024/01/05 08:49:38;;;;;;;22.02;10.60;;;;;;;-144.73;100.00;54682.75;5028021;28;20045;-68
2024/01/05 08:52:04;;;;;;;19.17;11.13;;;;;;;-144.73;100.00;54740.22;5012402;28;20029;-69
2024/01/05 08:54:29;;;;;;;22.02;11.82;;;;;;;-144.73;100.00;54697.13;5028163;28;20034;-70
2024/01/05 08:56:55;;;;;;;21.10;10.38;;;;;;;-144.73;100.00;54736.13;5042715;28;20083;-68
2024/01/05 08:59:20;;;;;;;15.55;9.05;;;;;;;-144.73;100.00;54695.06;5030901;28;20049;-69
2024/01/05 09:01:45;;;;;;;17.45;9.40;;;;;;;-144.73;100.00;54727.91;5031213;28;20051;-70
2024/01/05 09:04:11;;;;;;;17.73;9.35;;;;;;;-144.73;100.00;54686.84;5031090;28;20048;-69
2024/01/05 09:06:39;;;;;;;17.85;8.70;;;;;;;-144.73;100.00;54756.66;5032005;28;20030;-68
2024/01/05 09:09:05;;;;;;;16.50;9.13;;;;;;;-144.73;100.00;54727.91;5030558;28;20037;-68
2024/01/05 09:11:31;;;;;;;13.80;8.87;;;;;;;-144.73;100.00;54748.44;5032266;28;20097;-68
2024/01/05 09:13:56;;;;;;;16.50;9.60;;;;;;;-144.73;100.00;54719.69;5032135;28;20048;-69
2024/01/05 09:16:22;;;;;;;18.23;9.73;;;;;;;-144.73;100.00;54723.81;5031368;28;20029;-68
2024/01/05 09:18:47;;;;;;;16.25;8.38;;;;;;;-144.73;100.00;54703.28;5030832;28;20034;-68
2024/01/05 09:21:14;;;;;;;14.30;7.78;;;;;;;-144.73;100.00;54744.31;5031198;28;20025;-68
2024/01/05 09:23:41;;;;;;;18.67;10.93;;;;;;;-144.73;100.00;54711.47;5030981;28;20048;-68
2024/01/05 09:26:13;;;;;;;20.00;8.05;;;;;;;-144.73;100.00;54699.16;5031093;28;20095;-68
2024/01/05 09:28:38;;;;;;;14.68;7.45;;;;;;;-144.73;100.00;54727.91;5031384;28;20030;-68
2024/01/05 09:31:04;;;;;;;11.48;7.45;;;;;;;-144.73;100.00;54719.69;5031173;28;20060;-68
2024/01/05 09:33:29;;;;;;;12.60;6.97;;;;;;;-144.73;100.00;54727.91;5030747;28;20041;-69
2024/01/05 09:35:55;;;;;;;12.73;7.07;;;;;;;-144.73;100.00;54711.47;5016395;28;20037;-69
2024/01/05 09:38:20;;;;;;;10.40;6.73;;;;;;;-144.73;100.00;54695.06;5018033;28;20037;-68
2024/01/05 09:40:46;;;;;;;16.97;7.47;;;;;;;-144.73;100.00;54721.75;5030874;28;20025;-69
2024/01/05 09:43:16;;;;;;;14.43;7.47;;;;;;;-144.73;100.00;54678.63;5030403;28;20052;-69
2024/01/05 09:45:43;;;;;;;11.60;6.13;;;;;;;-144.73;100.00;54738.16;5031029;28;20037;-68
2024/01/05 09:48:10;;;;;;;15.35;7.53;;;;;;;-144.73;100.00;54686.84;5032976;28;20102;-68
2024/01/05 09:50:36;;;;;;;13.67;6.20;;;;;;;-144.73;100.00;54725.84;5034576;28;20033;-68
2024/01/05 09:53:04;;;;;;;12.03;6.23;;;;;;;-144.73;100.00;54707.38;5034142;28;20041;-69
2024/01/05 09:55:29;;;;;;;11.90;6.90;;;;;;;-144.73;100.00;54707.38;5036372;28;20039;-69
2024/01/05 09:57:55;;;;;;;12.85;6.93;;;;;;;-144.73;100.00;54672.47;5034635;28;20124;-68
2024/01/05 10:00:23;;;;;;;12.63;5.82;;;;;;;-144.73;100.00;54736.13;5034506;28;20061;-68
2024/01/05 10:02:58;;;;;;;16.48;6.88;;;;;;;-144.73;100.00;54760.75;5049073;28;20047;-69
2024/01/05 10:05:25;;;;;;;10.73;5.88;;;;;;;-144.73;100.00;54695.06;5030682;28;20117;-67
2024/01/05 10:07:50;;;;;;;15.00;6.07;;;;;;;-144.73;100.00;54740.22;5032358;28;20038;-68
2024/01/05 10:10:16;;;;;;;12.35;6.43;;;;;;;-144.73;100.00;54707.38;5031042;28;20029;-70
2024/01/05 10:12:41;;;;;;;10.43;5.60;;;;;;;-144.73;100.00;54715.59;5047354;28;20499;-68
2024/01/05 10:15:08;;;;;;;11.83;6.50;;;;;;;-144.73;100.00;54713.53;5031533;28;20032;-68
2024/01/05 10:17:34;;;;;;;13.48;6.00;;;;;;;-144.73;100.00;54723.81;5031699;28;20036;-68
2024/01/05 10:20:16;;;;;;;12.00;6.10;;;;;;;-144.73;100.00;54736.13;5031748;28;20017;-68
2024/01/05 10:22:46;;;;;;;10.88;6.05;;;;;;;-144.73;100.00;54682.75;5031298;28;20037;-67
2024/01/05 10:25:23;;;;;;;15.43;6.35;;;;;;;-144.73;100.00;54732.00;5031224;28;20072;-67
2024/01/05 10:27:49;;;;;;;7.78;5.32;;;;;;;-144.73;100.00;54742.28;5030756;28;20037;-68
2024/01/05 10:30:28;;;;;;;10.67;5.87;;;;;;;-144.73;100.00;54727.91;5032340;28;20037;-69
2024/01/05 10:33:05;;;;;;;8.77;4.68;;;;;;;-144.73;100.00;54695.06;5032070;28;20040;-69
2024/01/05 10:35:31;;;;;;;12.23;6.40;;;;;;;-144.73;100.00;54721.75;5033157;28;20423;-68
2024/01/05 10:38:08;;;;;;;12.80;6.60;;;;;;;-144.73;100.00;54703.28;5030428;28;20037;-68
2024/01/05 10:40:34;;;;;;;7.27;5.03;;;;;;;-144.73;100.00;54717.66;5030717;28;20108;-68
2024/01/05 10:43:16;;;;;;;9.03;5.23;;;;;;;-144.73;100.00;54715.59;5031117;28;20134;-69
2024/01/05 10:45:42;;;;;;;9.83;5.60;;;;;;;-144.73;100.00;54732.00;5030804;28;20116;-69
2024/01/05 10:48:10;;;;;;;10.05;5.60;;;;;;;-144.73;100.00;54723.81;5030864;28;20033;-68
2024/01/05 10:50:37;;;;;;;9.40;5.20;;;;;;;-144.73;100.00;54695.06;5030791;28;20124;-68